X  Close Metar Aviation Weather Data     KNPA Naval Air Station Pensacola Forrest Sherman Field
Temperature
81°F Temperature
73°F Dewpoint
79% Humidity



Wind
0 MPH
0 KM/H
0 M/S
0 KTS



Calm
N
Current Conditions

Clear Clear
Pressure 1016.62 (hPa) - 30.02 (inHg)
Visibility 10 (mile) - 16.1 (km)
Airport
Airport-code KNPA

Location: Naval Air Station Pensacola Forrest Sherman Field
Distance: 1 (mi)

Metar:
KNPA 022356Z AUTO 00000KT 10SM CLR 27/23 A3002 RMK AO2 SLP167 60002 T02720233 10300 20256 55002 $

Time: 02-07-2022 18:56 CDT